Terminal Aerodrome Forecast
Issued by NWS

Home | Current Version | Previous Version | Text Only | Print | Product List | Glossary On
Versions: 1 2 3 4 5 6 7 8 9 10 11 12 13 14 15 16 17
036
FTAK31 PAJN 232324
TAFAGY
TAF
PAGY 232324Z 2400/2424 21011KT P6SM SCT060
     FM240600 21008KT P6SM SCT050
     FM242000 21016KT P6SM SCT050 BKN200
      AMD LTD TO CLD VIS AND WIND=

USA.gov is the U.S. government's official web portal to all federal, state and local government web resources and services.